Time;durP1;ratioP1;P1;durP2;ratioP2;P2;SDS_P1;SDS_P2;PMS_P1;PMS_P2;Temp;Humidity;BMP_temperature;BMP_pressure;BME280_temperature;BME280_humidity;BME280_pressure;Samples;Min_cycle;Max_cycle;Signal;HPM_P1;HPM_P2
2022/11/22 00:00:18;;;;;;;1999.90;999.90;;;6.60;99.90;;;;;;4969680;28;20490;-70
2022/11/22 00:02:45;;;;;;;1999.90;999.90;;;6.70;99.90;;;;;;4970097;28;20458;-70
2022/11/22 00:05:12;;;;;;;1999.90;999.90;;;6.60;99.90;;;;;;4969977;28;20494;-69
2022/11/22 00:07:40;;;;;;;1999.90;999.90;;;6.60;99.90;;;;;;4971538;28;20981;-68
2022/11/22 00:10:08;;;;;;;1999.90;999.90;;;6.70;99.90;;;;;;4970913;28;20490;-70
2022/11/22 00:12:35;;;;;;;1999.90;999.90;;;6.60;99.90;;;;;;4971653;28;20572;-70
2022/11/22 00:15:02;;;;;;;1999.90;999.90;;;6.60;99.90;;;;;;4971551;28;20543;-70
2022/11/22 00:17:30;;;;;;;1999.90;999.90;;;6.70;99.90;;;;;;4971592;28;20456;-70
2022/11/22 00:19:57;;;;;;;1999.90;999.90;;;6.60;99.90;;;;;;4970906;28;20475;-70
2022/11/22 00:22:24;;;;;;;1999.90;999.90;;;6.70;99.90;;;;;;4969497;28;20458;-70
2022/11/22 00:24:53;;;;;;;1999.90;999.90;;;6.60;99.90;;;;;;4970752;28;20483;-70
2022/11/22 00:27:19;;;;;;;1999.90;999.90;;;6.70;99.90;;;;;;4969923;28;20451;-69
2022/11/22 00:29:46;;;;;;;1999.90;999.90;;;6.70;99.90;;;;;;4970808;28;21012;-69
2022/11/22 00:32:13;;;;;;;1999.90;999.90;;;6.70;99.90;;;;;;4971024;28;20456;-70
2022/11/22 00:34:40;;;;;;;1999.90;999.90;;;6.70;99.90;;;;;;4971355;28;20888;-70
2022/11/22 00:37:06;;;;;;;1999.90;999.90;;;6.70;99.90;;;;;;4971184;28;20451;-70
2022/11/22 00:39:33;;;;;;;1999.90;999.90;;;6.70;99.90;;;;;;4969597;28;20468;-70
2022/11/22 00:42:01;;;;;;;1999.90;999.90;;;6.70;99.90;;;;;;4971405;28;20455;-69
2022/11/22 00:44:28;;;;;;;1999.90;999.90;;;6.60;99.90;;;;;;4970793;28;20488;-70
2022/11/22 00:46:56;;;;;;;1999.90;999.90;;;6.60;99.90;;;;;;4971295;28;20452;-70
2022/11/22 00:49:22;;;;;;;1999.90;999.90;;;6.60;99.90;;;;;;4970451;28;20845;-69
2022/11/22 00:51:49;;;;;;;1999.90;999.90;;;6.60;99.90;;;;;;4971319;28;20996;-69
2022/11/22 00:54:16;;;;;;;1999.90;999.90;;;6.60;99.90;;;;;;4970936;28;20838;-70
2022/11/22 00:56:42;;;;;;;1999.90;999.90;;;6.60;99.90;;;;;;4971144;28;20968;-69
2022/11/22 00:59:11;;;;;;;1999.90;999.90;;;6.70;99.90;;;;;;4970550;28;21030;-70
2022/11/22 01:01:37;;;;;;;1999.90;999.90;;;6.70;99.90;;;;;;4970938;28;20448;-70
2022/11/22 01:04:04;;;;;;;1999.90;999.90;;;6.60;99.90;;;;;;4970865;28;20447;-70
2022/11/22 01:06:31;;;;;;;1999.90;999.90;;;6.70;99.90;;;;;;4970284;28;20839;-70
2022/11/22 01:08:58;;;;;;;1999.90;999.90;;;6.70;99.90;;;;;;4970831;28;20471;-70
2022/11/22 01:11:25;;;;;;;1999.90;999.90;;;6.70;99.90;;;;;;4970749;28;20455;-70
2022/11/22 01:13:52;;;;;;;1999.90;999.90;;;6.70;99.90;;;;;;4971091;28;20456;-69
2022/11/22 01:16:21;;;;;;;1999.90;999.90;;;6.80;99.90;;;;;;4970603;28;20447;-69
2022/11/22 01:18:47;;;;;;;1999.90;999.90;;;6.80;99.90;;;;;;4970547;28;20538;-69
2022/11/22 01:21:14;;;;;;;1999.90;999.90;;;6.80;99.90;;;;;;4974098;28;20454;-70
2022/11/22 01:23:41;;;;;;;1999.90;999.90;;;6.80;99.90;;;;;;4990283;28;20454;-69
2022/11/22 01:26:09;;;;;;;1999.90;999.90;;;6.80;99.90;;;;;;4990102;28;21022;-69
2022/11/22 01:28:37;;;;;;;1999.90;999.90;;;6.80;99.90;;;;;;4989598;28;20454;-69
2022/11/22 01:31:04;;;;;;;1999.90;999.90;;;6.90;99.90;;;;;;4990283;28;20839;-69
2022/11/22 01:33:32;;;;;;;1999.90;999.90;;;6.90;99.90;;;;;;4989930;28;20508;-70
2022/11/22 01:35:59;;;;;;;1999.90;999.90;;;6.90;99.90;;;;;;4989920;28;20455;-70
2022/11/22 01:38:25;;;;;;;1999.90;999.90;;;7.00;99.90;;;;;;4989684;28;20446;-70
2022/11/22 01:40:53;;;;;;;1999.90;999.90;;;6.90;99.90;;;;;;4990372;28;20451;-70
2022/11/22 01:43:21;;;;;;;1999.90;999.90;;;7.00;99.90;;;;;;4990137;28;20451;-70
2022/11/22 01:45:53;;;;;;;1999.90;999.90;;;7.00;99.90;;;;;;4989932;28;20483;-69
2022/11/22 01:48:38;;;;;;;1999.90;999.90;;;7.00;99.90;;;;;;4989905;28;20442;-69
2022/11/22 01:51:10;;;;;;;1999.90;999.90;;;7.10;99.90;;;;;;4991145;28;20816;-70
2022/11/22 01:53:39;;;;;;;1999.90;999.90;;;7.10;99.90;;;;;;4993450;28;20447;-69
2022/11/22 01:56:09;;;;;;;1999.90;999.90;;;7.10;99.90;;;;;;4993566;28;20945;-70
2022/11/22 01:58:37;;;;;;;1999.90;999.90;;;7.10;99.90;;;;;;4993154;28;20459;-70
2022/11/22 02:01:04;;;;;;;1999.90;999.90;;;7.20;99.90;;;;;;4981640;28;20451;-70
2022/11/22 02:03:33;;;;;;;1999.90;999.90;;;7.20;99.90;;;;;;4974444;28;20451;-70
2022/11/22 02:06:02;;;;;;;1999.90;999.90;;;7.20;99.90;;;;;;4974051;28;20490;-69
2022/11/22 02:08:35;;;;;;;1999.90;999.90;;;7.20;99.90;;;;;;4973868;28;20459;-70
2022/11/22 02:11:03;;;;;;;1999.90;999.90;;;7.20;99.90;;;;;;4973893;28;20534;-70
2022/11/22 02:13:34;;;;;;;1999.90;999.90;;;7.30;99.90;;;;;;4974002;28;20451;-70
2022/11/22 02:16:01;;;;;;;1999.90;999.90;;;7.20;99.90;;;;;;4973921;28;20455;-70
2022/11/22 02:18:28;;;;;;;1999.90;999.90;;;7.30;99.90;;;;;;4973333;28;20453;-69
2022/11/22 02:20:55;;;;;;;1999.90;999.90;;;7.30;99.90;;;;;;4973907;28;20451;-70
2022/11/22 02:23:31;;;;;;;1999.90;999.90;;;7.30;99.90;;;;;;4973548;28;20981;-69
2022/11/22 02:26:01;;;;;;;1999.90;999.90;;;7.30;99.90;;;;;;4973681;28;20546;-70
2022/11/22 02:28:31;;;;;;;1999.90;999.90;;;7.30;99.90;;;;;;4973213;28;20884;-69
2022/11/22 02:30:58;;;;;;;1999.90;999.90;;;7.30;99.90;;;;;;4973677;28;20462;-70
2022/11/22 02:33:25;;;;;;;1999.90;999.90;;;7.30;99.90;;;;;;4973333;28;20953;-69
2022/11/22 02:35:52;;;;;;;1999.90;999.90;;;7.20;99.90;;;;;;4973475;28;20443;-70
2022/11/22 02:38:23;;;;;;;1999.90;999.90;;;7.20;99.90;;;;;;4973245;28;20693;-70
2022/11/22 02:40:55;;;;;;;1999.90;999.90;;;7.20;99.90;;;;;;4973319;28;20547;-69
2022/11/22 02:43:27;;;;;;;1999.90;999.90;;;7.20;99.90;;;;;;4973586;28;20451;-70
2022/11/22 02:45:54;;;;;;;1999.90;999.90;;;7.10;99.90;;;;;;4973184;28;21053;-69
2022/11/22 02:48:21;;;;;;;1999.90;999.90;;;7.10;99.90;;;;;;4973121;28;20516;-70
2022/11/22 02:50:48;;;;;;;1999.90;999.90;;;7.00;99.90;;;;;;4972958;28;20463;-70
2022/11/22 02:53:14;;;;;;;1999.90;999.90;;;7.00;99.90;;;;;;4973484;28;20444;-69
2022/11/22 02:55:41;;;;;;;1999.90;999.90;;;7.00;99.90;;;;;;4973117;28;20435;-69
2022/11/22 02:58:08;;;;;;;1999.90;999.90;;;7.00;99.90;;;;;;4973181;28;20928;-70
2022/11/22 03:00:38;;;;;;;1999.90;999.90;;;7.00;99.90;;;;;;4972721;28;20478;-69
2022/11/22 03:03:05;;;;;;;1999.90;999.90;;;7.00;99.90;;;;;;4972230;28;20526;-70
2022/11/22 03:05:32;;;;;;;1999.90;999.90;;;6.90;99.90;;;;;;4973164;28;20487;-70
2022/11/22 03:07:59;;;;;;;1999.90;999.90;;;6.90;99.90;;;;;;4972819;28;20462;-70
2022/11/22 03:10:26;;;;;;;1999.90;999.90;;;6.80;99.90;;;;;;4972587;28;20480;-70
2022/11/22 03:12:53;;;;;;;1999.90;999.90;;;6.80;99.90;;;;;;4972798;28;21075;-70
2022/11/22 03:15:20;;;;;;;1999.90;999.90;;;6.70;99.90;;;;;;4972898;28;20455;-70
2022/11/22 03:17:48;;;;;;;1999.90;999.90;;;6.70;99.90;;;;;;4972379;28;20446;-69
2022/11/22 03:20:14;;;;;;;1999.90;999.90;;;6.70;99.90;;;;;;4972585;28;20487;-69
2022/11/22 03:22:41;;;;;;;1999.90;999.90;;;6.70;99.90;;;;;;4972679;28;20460;-70
2022/11/22 03:25:08;;;;;;;1999.90;999.90;;;6.60;99.90;;;;;;4972852;28;20869;-70
2022/11/22 03:27:35;;;;;;;1999.90;999.90;;;6.70;99.90;;;;;;4972729;28;20945;-69
2022/11/22 03:30:02;;;;;;;1999.90;999.90;;;6.60;99.90;;;;;;4972356;28;20467;-70
2022/11/22 03:32:29;;;;;;;1999.90;999.90;;;6.60;99.90;;;;;;4972784;28;20452;-69
2022/11/22 03:34:57;;;;;;;1999.90;999.90;;;6.70;99.90;;;;;;4972715;28;20447;-70
2022/11/22 03:37:23;;;;;;;1999.90;999.90;;;6.70;99.90;;;;;;4972928;28;20456;-70
2022/11/22 03:39:50;;;;;;;1999.90;999.90;;;6.70;99.90;;;;;;4971988;28;20525;-70
2022/11/22 03:42:17;;;;;;;1999.90;999.90;;;6.70;99.90;;;;;;4972761;28;20454;-70
2022/11/22 03:44:44;;;;;;;1999.90;999.90;;;6.70;99.90;;;;;;4972321;28;20462;-70
2022/11/22 03:47:10;;;;;;;1999.90;999.90;;;6.70;99.90;;;;;;4972804;28;20479;-69
2022/11/22 03:49:37;;;;;;;1999.90;999.90;;;6.70;99.90;;;;;;4972214;28;20475;-70
2022/11/22 03:52:06;;;;;;;1999.90;999.90;;;6.70;99.90;;;;;;4973064;28;20478;-70
2022/11/22 03:54:32;;;;;;;1999.90;999.90;;;6.70;99.90;;;;;;4972518;28;20467;-70
2022/11/22 03:56:59;;;;;;;1999.90;999.90;;;6.60;99.90;;;;;;4972586;28;20447;-70
2022/11/22 03:59:26;;;;;;;1999.90;999.90;;;6.70;99.90;;;;;;4972566;28;20472;-70
2022/11/22 04:01:53;;;;;;;1999.90;999.90;;;6.60;99.90;;;;;;4972892;28;20923;-70
2022/11/22 04:04:19;;;;;;;1999.90;999.90;;;6.60;99.90;;;;;;4972692;28;20486;-70
2022/11/22 04:06:46;;;;;;;1999.90;999.90;;;6.60;99.90;;;;;;4972106;28;20485;-70
2022/11/22 04:09:14;;;;;;;1999.90;999.90;;;6.60;99.90;;;;;;4972190;28;20467;-70
2022/11/22 04:11:41;;;;;;;1999.90;999.90;;;6.60;99.90;;;;;;4972633;28;20459;-69
2022/11/22 04:16:55;;;;;;;1999.90;999.90;;;6.50;99.90;;;;;;4972590;28;20944;-70
2022/11/22 04:19:22;;;;;;;1999.90;999.90;;;6.50;99.90;;;;;;4987905;28;20459;-70
2022/11/22 04:21:48;;;;;;;1999.90;999.90;;;6.50;99.90;;;;;;4989962;28;20457;-70
2022/11/22 04:27:00;;;;;;;1999.90;999.90;;;6.60;99.90;;;;;;4989768;28;20480;-69
2022/11/22 04:29:27;;;;;;;1999.90;999.90;;;6.50;99.90;;;;;;4990177;28;20459;-70
2022/11/22 04:34:53;;;;;;;1999.90;999.90;;;6.60;99.90;;;;;;4949258;29;20428;-70
2022/11/22 04:37:19;;;;;;;1999.90;999.90;;;6.50;99.90;;;;;;4949853;29;20452;-70
2022/11/22 04:39:47;;;;;;;1999.90;999.90;;;6.50;99.90;;;;;;4966832;28;20473;-69
2022/11/22 04:44:58;;;;;;;1999.90;999.90;;;6.40;99.90;;;;;;4990788;28;20508;-70
2022/11/22 04:52:53;;;;;;;1999.90;999.90;;;6.30;99.90;;;;;;4990496;28;20513;-70
2022/11/22 04:55:21;;;;;;;1999.90;999.90;;;6.30;99.90;;;;;;4990325;28;20447;-70
2022/11/22 04:57:48;;;;;;;1999.90;999.90;;;6.20;99.90;;;;;;4990305;28;20446;-70
2022/11/22 05:00:16;;;;;;;1999.90;999.90;;;6.00;99.90;;;;;;4990241;28;20473;-69
2022/11/22 05:02:43;;;;;;;1999.90;999.90;;;5.80;99.90;;;;;;4990118;28;20442;-69
2022/11/22 05:05:10;;;;;;;1999.90;999.90;;;5.70;99.90;;;;;;4990344;28;20446;-70
2022/11/22 05:07:37;;;;;;;1999.90;999.90;;;5.60;99.90;;;;;;4990085;28;20531;-70
2022/11/22 05:10:04;;;;;;;1999.90;999.90;;;5.60;99.90;;;;;;4989916;28;20478;-70
2022/11/22 05:12:32;;;;;;;1999.90;999.90;;;5.50;99.90;;;;;;4989866;28;20447;-69
2022/11/22 05:14:59;;;;;;;1999.90;999.90;;;5.50;99.90;;;;;;4990187;28;20443;-70
2022/11/22 05:17:25;;;;;;;1999.90;999.90;;;5.40;99.90;;;;;;4989399;28;20440;-69
2022/11/22 05:19:52;;;;;;;1999.90;999.90;;;5.30;99.90;;;;;;4989706;28;20223;-69
2022/11/22 05:23:52;;;;;;;1999.90;999.90;;;5.30;99.90;;;;;;4989949;28;20461;-70
2022/11/22 05:25:05;;;;;;;1999.90;999.90;;;5.30;99.90;;;;;;4989636;28;20442;-69
2022/11/22 05:27:33;;;;;;;1999.90;999.90;;;5.30;99.90;;;;;;4993285;28;20474;-69
2022/11/22 05:30:00;;;;;;;1999.90;999.90;;;5.40;99.90;;;;;;4992383;28;20470;-70
2022/11/22 05:32:29;;;;;;;1999.90;999.90;;;5.50;99.90;;;;;;4994336;28;20853;-70
2022/11/22 05:34:56;;;;;;;1999.90;999.90;;;5.50;99.90;;;;;;4993829;28;20442;-69
2022/11/22 05:37:22;;;;;;;1999.90;999.90;;;5.50;99.90;;;;;;4993878;28;20450;-70
2022/11/22 05:39:49;;;;;;;1999.90;999.90;;;5.50;99.90;;;;;;4993336;28;20470;-69
2022/11/22 05:42:16;;;;;;;1999.90;999.90;;;5.50;99.90;;;;;;4994039;28;20446;-72
2022/11/22 05:44:44;;;;;;;1999.90;999.90;;;5.40;99.90;;;;;;4993728;28;20948;-70
2022/11/22 05:47:12;;;;;;;1999.90;999.90;;;5.50;99.90;;;;;;4993946;28;20871;-71
2022/11/22 05:49:39;;;;;;;1999.90;999.90;;;5.50;99.90;;;;;;4993352;28;20474;-70
2022/11/22 05:52:09;;;;;;;1999.90;999.90;;;5.50;99.90;;;;;;4993551;28;20517;-71
2022/11/22 05:54:35;;;;;;;1999.90;999.90;;;5.60;99.90;;;;;;4994202;28;20461;-71
2022/11/22 05:57:02;;;;;;;1999.90;999.90;;;5.70;99.90;;;;;;4993340;28;20457;-68
2022/11/22 05:59:29;;;;;;;1999.90;999.90;;;5.70;99.90;;;;;;4993559;28;20482;-68
2022/11/22 06:01:57;;;;;;;1999.90;999.90;;;5.80;99.90;;;;;;4973415;28;20452;-68
2022/11/22 06:04:24;;;;;;;1999.90;999.90;;;5.90;99.90;;;;;;4968343;28;20444;-69
2022/11/22 06:06:51;;;;;;;1999.90;999.90;;;5.90;99.90;;;;;;4973501;28;20581;-70
2022/11/22 06:09:17;;;;;;;1999.90;999.90;;;6.00;99.90;;;;;;4970607;28;20472;-69
2022/11/22 06:11:44;;;;;;;1999.90;999.90;;;6.00;99.90;;;;;;4966508;28;20463;-70
2022/11/22 06:14:11;;;;;;;1999.90;999.90;;;5.70;99.90;;;;;;4964644;28;20451;-68
2022/11/22 06:16:38;;;;;;;1999.90;999.90;;;5.70;99.90;;;;;;4980180;28;20439;-70
2022/11/22 06:19:06;;;;;;;1999.90;999.90;;;5.70;99.90;;;;;;4975619;28;20471;-69
2022/11/22 06:21:32;;;;;;;1999.90;999.90;;;5.70;99.90;;;;;;4970679;28;20447;-69
2022/11/22 06:23:59;;;;;;;1999.90;999.90;;;5.70;99.90;;;;;;4973454;28;20452;-69
2022/11/22 06:26:26;;;;;;;1999.90;999.90;;;5.60;99.90;;;;;;4972321;28;20952;-69
2022/11/22 06:28:54;;;;;;;1999.90;999.90;;;5.70;99.90;;;;;;4971937;28;20472;-69
2022/11/22 06:31:23;;;;;;;1999.90;999.90;;;5.60;99.90;;;;;;4972428;28;20455;-68
2022/11/22 06:33:50;;;;;;;1999.90;999.90;;;5.60;99.90;;;;;;4973022;28;20475;-69
2022/11/22 06:36:21;;;;;;;1999.90;999.90;;;5.60;99.90;;;;;;4973461;28;20451;-69
2022/11/22 06:38:48;;;;;;;1999.90;999.90;;;5.50;99.90;;;;;;4971732;28;20493;-69
2022/11/22 06:41:17;;;;;;;1999.90;999.90;;;5.50;99.90;;;;;;4973544;28;20488;-68
2022/11/22 06:43:45;;;;;;;1999.90;999.90;;;5.40;99.90;;;;;;4973116;28;20447;-68
2022/11/22 06:46:13;;;;;;;1999.90;999.90;;;5.60;99.90;;;;;;4973113;28;20475;-69
2022/11/22 06:48:42;;;;;;;1999.90;999.90;;;5.60;99.90;;;;;;4972926;28;20502;-68
2022/11/22 06:51:11;;;;;;;1999.90;999.90;;;5.70;99.90;;;;;;4972587;28;20454;-69
2022/11/22 06:53:39;;;;;;;1999.90;999.90;;;5.60;99.90;;;;;;4973046;28;20448;-68
2022/11/22 06:56:08;;;;;;;1999.90;999.90;;;5.70;99.90;;;;;;4973087;28;20448;-68
2022/11/22 06:58:35;;;;;;;1999.90;999.90;;;5.70;99.90;;;;;;4972793;28;20444;-69
2022/11/22 07:01:03;;;;;;;1999.90;999.90;;;5.60;99.90;;;;;;4972858;28;20464;-68
2022/11/22 07:03:30;;;;;;;1999.90;999.90;;;5.60;99.90;;;;;;4973153;28;20500;-69
2022/11/22 07:05:57;;;;;;;1999.90;999.90;;;5.60;99.90;;;;;;4972886;28;20447;-69
2022/11/22 07:08:24;;;;;;;1999.90;999.90;;;5.60;99.90;;;;;;4971986;28;20451;-70
2022/11/22 07:10:52;;;;;;;1999.90;999.90;;;5.70;99.90;;;;;;4971783;28;20459;-70
2022/11/22 07:13:19;;;;;;;1999.90;999.90;;;5.60;99.90;;;;;;4972507;28;20451;-70
2022/11/22 07:15:54;;;;;;;1999.90;999.90;;;5.50;99.90;;;;;;4972942;28;20447;-68
2022/11/22 07:18:22;;;;;;;1999.90;999.90;;;5.60;99.90;;;;;;4972589;28;20444;-70
2022/11/22 07:20:48;;;;;;;1999.90;999.90;;;5.70;99.90;;;;;;4972854;28;20997;-70
2022/11/22 07:23:15;;;;;;;1999.90;999.90;;;5.80;99.90;;;;;;4972925;28;20459;-67
2022/11/22 07:25:44;;;;;;;1999.90;999.90;;;5.80;99.90;;;;;;4972770;28;20967;-70
2022/11/22 07:28:13;;;;;;;1999.90;999.90;;;5.80;99.90;;;;;;4972167;28;20496;-69
2022/11/22 07:30:40;;;;;;;1999.90;999.90;;;5.90;99.90;;;;;;4972633;28;20483;-69
2022/11/22 07:33:06;;;;;;;1999.90;999.90;;;5.90;99.90;;;;;;4972439;28;20459;-69
2022/11/22 07:35:33;;;;;;;1999.90;999.90;;;6.00;99.90;;;;;;4972429;28;20448;-69
2022/11/22 07:38:00;;;;;;;1999.90;999.90;;;6.00;99.90;;;;;;4972236;28;20452;-68
2022/11/22 07:40:27;;;;;;;1999.90;999.90;;;6.00;99.90;;;;;;4971752;28;20472;-68
2022/11/22 07:42:53;;;;;;;1999.90;999.90;;;6.10;99.90;;;;;;4972034;28;20964;-68
2022/11/22 07:45:21;;;;;;;1999.90;999.90;;;6.10;99.90;;;;;;4972748;28;20853;-67
2022/11/22 07:47:48;;;;;;;1999.90;999.90;;;6.10;99.90;;;;;;4971948;28;20490;-68
2022/11/22 07:50:15;;;;;;;1999.90;999.90;;;6.20;99.90;;;;;;4971067;28;20550;-68
2022/11/22 07:52:42;;;;;;;1999.90;999.90;;;6.20;99.90;;;;;;4971884;28;20535;-68
2022/11/22 07:55:10;;;;;;;1999.90;999.90;;;6.20;99.90;;;;;;4971713;28;20478;-68
2022/11/22 07:57:38;;;;;;;1999.90;999.90;;;6.30;99.90;;;;;;4972197;28;20527;-68
2022/11/22 08:00:06;;;;;;;1999.90;999.90;;;6.30;99.90;;;;;;4971296;28;20468;-68
2022/11/22 08:02:36;;;;;;;1999.90;999.90;;;6.40;99.90;;;;;;4971907;28;20439;-68
2022/11/22 08:05:03;;;;;;;1999.90;999.90;;;6.60;99.90;;;;;;4971819;28;20451;-68
2022/11/22 08:07:30;;;;;;;1999.90;999.90;;;6.60;99.90;;;;;;4971447;28;20871;-68
2022/11/22 08:09:56;;;;;;;1999.90;999.90;;;6.70;99.90;;;;;;4970998;28;20482;-69
2022/11/22 08:12:23;;;;;;;1999.90;999.90;;;6.80;99.90;;;;;;4971513;28;20448;-68
2022/11/22 08:14:50;;;;;;;1999.90;999.90;;;6.80;99.90;;;;;;4971468;28;20455;-69
2022/11/22 08:17:17;;;;;;;1999.90;999.90;;;6.90;99.90;;;;;;4971623;28;20448;-68
2022/11/22 08:19:45;;;;;;;1999.90;999.90;;;6.90;99.90;;;;;;4970912;28;20468;-69
2022/11/22 08:22:11;;;;;;;1999.90;999.90;;;6.90;99.90;;;;;;4971354;28;20443;-68
2022/11/22 08:24:38;;;;;;;1999.90;999.90;;;6.90;99.90;;;;;;4971429;28;20448;-68
2022/11/22 08:27:05;;;;;;;1999.90;999.90;;;6.90;99.90;;;;;;4971370;28;20483;-68
2022/11/22 08:29:32;;;;;;;1999.90;999.90;;;7.00;99.90;;;;;;4971035;28;20482;-68
2022/11/22 08:31:58;;;;;;;1999.90;999.90;;;7.10;99.90;;;;;;4971184;28;20454;-68
2022/11/22 08:34:25;;;;;;;1999.90;999.90;;;7.10;99.90;;;;;;4971161;28;20458;-69
2022/11/22 08:36:53;;;;;;;1999.90;999.90;;;7.20;99.90;;;;;;4971391;28;20500;-69
2022/11/22 08:39:21;;;;;;;1999.90;999.90;;;7.30;99.90;;;;;;4970986;28;20476;-68
2022/11/22 08:41:48;;;;;;;1999.90;999.90;;;7.40;99.90;;;;;;4971272;28;20535;-68
2022/11/22 08:44:14;;;;;;;1999.90;999.90;;;7.50;99.90;;;;;;4971166;28;20452;-69
2022/11/22 08:46:41;;;;;;;1999.90;999.90;;;7.60;99.90;;;;;;4970959;28;20479;-68
2022/11/22 08:49:10;;;;;;;1999.90;999.90;;;7.70;99.90;;;;;;4970781;28;21012;-68
2022/11/22 08:51:43;;;;;;;1999.90;999.90;;;7.90;99.90;;;;;;4970996;28;20456;-68
2022/11/22 08:54:11;;;;;;;1999.90;999.90;;;8.00;99.90;;;;;;4971059;28;20448;-69
2022/11/22 08:56:38;;;;;;;1999.90;999.90;;;8.10;99.90;;;;;;4970855;28;20443;-68
2022/11/22 08:59:05;;;;;;;1999.90;999.90;;;8.20;99.90;;;;;;4970680;28;20479;-69
2022/11/22 09:01:32;;;;;;;1999.90;999.90;;;8.30;99.90;;;;;;4970146;28;20470;-69
2022/11/22 09:03:58;;;;;;;1999.90;999.90;;;8.40;99.90;;;;;;4971072;28;20458;-69
2022/11/22 09:06:25;;;;;;;1999.90;999.90;;;8.50;99.90;;;;;;4970909;28;20447;-68
2022/11/22 09:08:52;;;;;;;1999.90;999.90;;;8.60;99.90;;;;;;4970635;28;20476;-68
2022/11/22 09:11:20;;;;;;;1999.90;999.90;;;8.50;99.90;;;;;;4970461;28;20463;-69
2022/11/22 09:13:47;;;;;;;1999.90;999.90;;;8.60;99.90;;;;;;4970838;28;20455;-69
2022/11/22 09:16:16;;;;;;;1999.90;999.90;;;8.60;99.90;;;;;;4970691;28;20451;-68
2022/11/22 09:18:43;;;;;;;1999.90;999.90;;;8.70;99.90;;;;;;4970446;28;20836;-69
2022/11/22 09:21:14;;;;;;;1999.90;999.90;;;8.90;99.90;;;;;;4970976;28;20448;-69
2022/11/22 09:23:43;;;;;;;1999.90;999.90;;;9.00;99.90;;;;;;4970831;28;20890;-69
2022/11/22 09:26:12;;;;;;;1999.90;999.90;;;9.10;99.90;;;;;;4970910;28;20459;-69
2022/11/22 09:28:40;;;;;;;1999.90;999.90;;;9.20;99.90;;;;;;4970077;28;21200;-68
2022/11/22 09:31:09;;;;;;;1999.90;999.90;;;9.40;99.90;;;;;;4970938;28;20475;-69
2022/11/22 09:33:38;;;;;;;1999.90;999.90;;;9.50;99.90;;;;;;4970768;28;20796;-68
2022/11/22 09:36:06;;;;;;;1999.90;999.90;;;9.70;99.90;;;;;;4970888;28;20845;-69
2022/11/22 09:38:34;;;;;;;1999.90;999.90;;;9.80;99.90;;;;;;4970261;28;21061;-68
2022/11/22 09:41:06;;;;;;;1999.90;999.90;;;9.80;99.90;;;;;;4970518;28;20451;-69
2022/11/22 09:43:43;;;;;;;1999.90;999.90;;;9.90;99.90;;;;;;4970665;28;20458;-69
2022/11/22 09:46:22;;;;;;;1999.90;999.90;;;10.00;99.90;;;;;;4970522;28;20536;-69
2022/11/22 09:49:06;;;;;;;1999.90;999.90;;;10.10;99.90;;;;;;4970205;28;21106;-68
2022/11/22 09:51:38;;;;;;;1999.90;999.90;;;10.20;99.90;;;;;;4970628;28;20447;-68
2022/11/22 09:54:08;;;;;;;1999.90;999.90;;;10.30;99.90;;;;;;4970989;28;20447;-68
2022/11/22 09:56:35;;;;;;;1999.90;999.90;;;10.30;99.90;;;;;;4970727;28;20459;-69
2022/11/22 09:59:09;;;;;;;1999.90;999.90;;;10.40;99.90;;;;;;4970542;28;20498;-68
2022/11/22 10:01:42;;;;;;;1999.90;999.90;;;10.50;99.90;;;;;;4970870;28;20480;-69
2022/11/22 10:04:14;;;;;;;1999.90;999.90;;;10.40;99.90;;;;;;4970799;28;20522;-69
2022/11/22 10:06:43;;;;;;;1999.90;999.90;;;10.30;99.90;;;;;;4970693;28;20813;-68
2022/11/22 10:09:27;;;;;;;1999.90;999.90;;;10.40;99.90;;;;;;4970393;28;20495;-68
2022/11/22 10:12:01;;;;;;;1999.90;999.90;;;10.50;99.90;;;;;;4971130;28;20451;-69
2022/11/22 10:14:41;;;;;;;1999.90;999.90;;;10.50;99.90;;;;;;4974025;28;20450;-69
2022/11/22 10:17:23;;;;;;;1999.90;999.90;;;10.40;99.90;;;;;;4974039;28;20465;-69
2022/11/22 10:19:58;;;;;;;1999.90;999.90;;;10.30;99.90;;;;;;4972254;28;20467;-69
2022/11/22 10:22:28;;;;;;;1999.90;999.90;;;10.10;99.90;;;;;;4973161;28;20443;-68
2022/11/22 10:24:55;;;;;;;1999.90;999.90;;;10.00;99.90;;;;;;4972313;28;20463;-69
2022/11/22 10:27:21;;;;;;;1999.90;999.90;;;10.10;99.90;;;;;;4973637;28;20494;-69
2022/11/22 10:29:55;;;;;;;1999.90;999.90;;;10.10;99.90;;;;;;4973421;28;20467;-69
2022/11/22 10:32:28;;;;;;;1999.90;999.90;;;10.00;99.90;;;;;;4973733;28;20451;-69
2022/11/22 10:35:17;;;;;;;1999.90;999.90;;;10.00;99.90;;;;;;4973719;28;20456;-69
2022/11/22 10:37:54;;;;;;;1999.90;999.90;;;10.10;99.90;;;;;;4973429;28;20459;-69
2022/11/22 10:40:26;;;;;;;1999.90;999.90;;;10.20;99.90;;;;;;4973332;28;20467;-70
2022/11/22 10:43:19;;;;;;;1999.90;999.90;;;10.10;99.90;;;;;;4973474;28;20456;-69
2022/11/22 10:45:53;;;;;;;1999.90;999.90;;;10.20;99.90;;;;;;4973264;28;20453;-69
2022/11/22 10:48:29;;;;;;;1999.90;999.90;;;10.10;99.90;;;;;;4973109;28;20493;-69
2022/11/22 10:51:04;;;;;;;1999.90;999.90;;;10.00;99.90;;;;;;4973473;28;20457;-70
2022/11/22 10:53:47;;;;;;;1999.90;999.90;;;10.00;99.90;;;;;;4973281;28;20455;-69
2022/11/22 10:56:21;;;;;;;1999.90;999.90;;;10.00;99.90;;;;;;4973211;28;20443;-70
2022/11/22 10:59:01;;;;;;;1999.90;999.90;;;10.10;99.90;;;;;;4972872;28;20466;-70
2022/11/22 11:01:38;;;;;;;1999.90;999.90;;;10.10;99.90;;;;;;4972978;28;20960;-69
2022/11/22 11:04:07;;;;;;;1999.90;999.90;;;10.10;99.90;;;;;;4972878;28;20918;-69
2022/11/22 11:06:38;;;;;;;1999.90;999.90;;;10.00;99.90;;;;;;4972737;28;20455;-69
2022/11/22 11:09:10;;;;;;;1999.90;999.90;;;9.90;99.90;;;;;;4972221;28;21000;-69
2022/11/22 11:11:39;;;;;;;1999.90;999.90;;;9.80;99.90;;;;;;4972924;28;20455;-69
2022/11/22 11:14:24;;;;;;;1999.90;999.90;;;9.70;99.90;;;;;;4972823;28;20849;-69
2022/11/22 11:16:53;;;;;;;1999.90;999.90;;;9.70;99.90;;;;;;4972743;28;20475;-69
2022/11/22 11:19:22;;;;;;;1999.90;999.90;;;9.80;99.90;;;;;;4972521;28;20463;-69
2022/11/22 11:21:58;;;;;;;1999.90;999.90;;;9.90;99.90;;;;;;4972911;28;20459;-69
2022/11/22 11:24:28;;;;;;;1999.90;999.90;;;9.90;99.90;;;;;;4972017;28;20459;-69
2022/11/22 11:26:57;;;;;;;1999.90;999.90;;;10.00;99.90;;;;;;4972512;28;20510;-69
2022/11/22 11:29:39;;;;;;;1999.90;999.90;;;10.00;99.90;;;;;;4971998;28;20463;-69
2022/11/22 11:32:11;;;;;;;1999.90;999.90;;;10.00;99.90;;;;;;4972783;28;20823;-69
2022/11/22 11:34:40;;;;;;;1999.90;999.90;;;10.10;99.90;;;;;;4972410;28;20451;-69
2022/11/22 11:37:18;;;;;;;1999.90;999.90;;;10.30;99.90;;;;;;4972460;28;20946;-69
2022/11/22 11:39:46;;;;;;;1999.90;999.90;;;10.40;99.90;;;;;;4971878;28;20482;-69
2022/11/22 11:42:25;;;;;;;1999.90;999.90;;;10.40;99.90;;;;;;4972331;28;20945;-69
2022/11/22 11:44:52;;;;;;;1999.90;999.90;;;10.50;99.90;;;;;;4972331;28;20442;-70
2022/11/22 11:47:32;;;;;;;1999.90;999.90;;;10.50;99.90;;;;;;4972398;28;20448;-70
2022/11/22 11:49:59;;;;;;;1999.90;999.90;;;10.60;99.90;;;;;;4972040;28;20468;-69
2022/11/22 11:52:27;;;;;;;1999.90;999.90;;;10.60;99.90;;;;;;4972141;28;20799;-69
2022/11/22 11:54:56;;;;;;;1999.90;999.90;;;10.50;99.90;;;;;;4972260;28;20459;-69
2022/11/22 11:57:28;;;;;;;1999.90;999.90;;;10.50;99.90;;;;;;4972170;28;20452;-69
2022/11/22 11:59:58;;;;;;;1999.90;999.90;;;10.40;99.90;;;;;;4971552;28;20476;-69
2022/11/22 12:02:35;;;;;;;1999.90;999.90;;;10.40;99.90;;;;;;4972070;28;20444;-69
2022/11/22 12:05:04;;;;;;;1999.90;999.90;;;10.30;99.90;;;;;;4971813;28;20972;-69
2022/11/22 12:07:40;;;;;;;1999.90;999.90;;;10.30;99.90;;;;;;4971983;28;20479;-69
2022/11/22 12:10:31;;;;;;;1999.90;999.90;;;10.40;99.90;;;;;;4971607;28;20553;-69
2022/11/22 12:13:03;;;;;;;1999.90;999.90;;;10.40;99.90;;;;;;4971906;28;20451;-69
2022/11/22 12:15:40;;;;;;;1999.90;999.90;;;10.40;99.90;;;;;;4971803;28;20446;-69
2022/11/22 12:18:28;;;;;;;1999.90;999.90;;;10.30;99.90;;;;;;4972219;28;20439;-69
2022/11/22 12:21:06;;;;;;;1999.90;999.90;;;10.30;99.90;;;;;;4972384;28;20447;-69
2022/11/22 12:23:42;;;;;;;1999.90;999.90;;;10.30;99.90;;;;;;4972104;28;20454;-68
2022/11/22 12:26:08;;;;;;;1999.90;999.90;;;10.20;99.90;;;;;;4971617;28;20945;-69
2022/11/22 12:28:37;;;;;;;1999.90;999.90;;;10.10;99.90;;;;;;4971240;28;20483;-69
2022/11/22 12:31:08;;;;;;;1999.90;999.90;;;10.10;99.90;;;;;;4971587;28;21187;-69